Time;durP1;ratioP1;P1;durP2;ratioP2;P2;SDS_P1;SDS_P2;PMS_P1;PMS_P2;Temp;Humidity;BMP_temperature;BMP_pressure;BME280_temperature;BME280_humidity;BME280_pressure;Samples;Min_cycle;Max_cycle;Signal;HPM_P1;HPM_P2
2021/01/30 00:00:37;;;;;;;22.15;7.53;;;26.50;76.60;;;;;;6189604;23;20005;-88
2021/01/30 00:03:32;;;;;;;12.85;5.45;;;26.40;76.50;;;;;;6195314;23;19997;-90
2021/01/30 00:05:59;;;;;;;12.70;5.22;;;26.40;76.50;;;;;;6196058;23;20005;-90
2021/01/30 00:09:07;;;;;;;;;;;;;;;;;;;;;
2021/01/30 00:27:33;;;;;;;9.35;4.82;;;26.00;78.60;;;;;;6217944;22;20035;-87
2021/01/30 00:52:29;;;;;;;7.22;5.15;;;25.60;79.20;;;;;;6134552;23;20180;-90
2021/01/30 00:55:33;;;;;;;8.10;4.20;;;25.60;79.30;;;;;;6102506;23;20218;-89
2021/01/30 00:58:55;;;;;;;8.80;4.35;;;25.60;79.10;;;;;;6205321;23;20007;-90
2021/01/30 01:01:45;;;;;;;9.88;4.43;;;25.60;79.20;;;;;;6201914;23;20004;-89
2021/01/30 01:04:32;;;;;;;7.50;4.25;;;25.60;79.30;;;;;;6228963;23;20008;-91
2021/01/30 01:07:30;;;;;;;8.65;4.65;;;25.50;79.70;;;;;;6256790;23;20028;-92
2021/01/30 01:10:25;;;;;;;10.00;4.95;;;25.50;79.30;;;;;;6144228;23;20313;-90
2021/01/30 01:12:57;;;;;;;8.45;4.93;;;25.40;79.80;;;;;;6210305;23;20016;-89
2021/01/30 01:19:21;;;;;;;9.57;5.20;;;25.40;79.00;;;;;;6106479;23;20198;-88
2021/01/30 01:22:02;;;;;;;8.68;4.85;;;25.40;79.00;;;;;;6211880;23;20008;-88
2021/01/30 01:33:47;;;;;;;;;;;;;;;;;;;;;
2021/01/30 01:37:17;;;;;;;5.97;4.55;;;25.30;78.80;;;;;;6146199;23;20036;-92
2021/01/30 02:00:52;;;;;;;7.57;4.60;;;25.10;78.90;;;;;;6259774;22;20019;-90
2021/01/30 02:15:22;;;;;;;8.88;4.38;;;25.00;78.40;;;;;;6047389;23;20103;-90
2021/01/30 02:22:47;;;;;;;7.18;4.70;;;24.80;78.20;;;;;;6256339;22;20111;-89
2021/01/30 02:28:25;;;;;;;8.10;5.03;;;24.80;78.20;;;;;;6242928;23;20020;-89
2021/01/30 02:31:20;;;;;;;9.20;4.85;;;24.70;78.90;;;;;;6256307;23;20296;-90
2021/01/30 02:34:23;;;;;;;7.70;4.15;;;24.70;77.90;;;;;;6255454;23;20196;-88
2021/01/30 02:40:10;;;;;;;6.38;4.30;;;24.50;78.10;;;;;;6255159;23;20046;-89
2021/01/30 02:43:12;;;;;;;9.77;4.72;;;24.50;78.00;;;;;;6255974;23;20011;-90
2021/01/30 02:45:47;;;;;;;8.00;4.53;;;24.50;77.90;;;;;;6229268;23;20004;-89
2021/01/30 02:48:25;;;;;;;7.40;4.38;;;24.50;77.80;;;;;;6228631;23;20064;-88
2021/01/30 02:51:09;;;;;;;9.63;4.53;;;24.40;77.60;;;;;;6229684;23;20035;-88
2021/01/30 02:53:59;;;;;;;12.15;5.90;;;24.40;77.40;;;;;;6229259;23;20055;-88
2021/01/30 02:56:29;;;;;;;8.77;5.28;;;24.40;77.60;;;;;;6190163;23;20201;-89
2021/01/30 02:59:19;;;;;;;7.53;5.10;;;24.30;77.80;;;;;;6193291;23;20237;-87
2021/01/30 03:01:46;;;;;;;7.78;4.68;;;24.20;77.40;;;;;;6151253;23;20032;-88
2021/01/30 03:04:25;;;;;;;6.80;4.78;;;24.10;77.30;;;;;;6192196;23;20001;-87
2021/01/30 03:06:55;;;;;;;8.60;4.18;;;24.10;77.00;;;;;;6193252;23;20001;-88
2021/01/30 03:09:40;;;;;;;5.50;4.50;;;24.10;76.90;;;;;;6193289;23;19997;-87
2021/01/30 03:12:12;;;;;;;8.60;3.80;;;24.10;77.00;;;;;;6193328;23;20197;-89
2021/01/30 03:14:58;;;;;;;5.07;3.83;;;24.10;76.70;;;;;;6193007;23;19997;-87
2021/01/30 03:18:01;;;;;;;5.75;3.65;;;24.10;76.50;;;;;;6192870;23;20036;-88
2021/01/30 03:20:33;;;;;;;5.55;3.92;;;24.00;76.80;;;;;;6189862;23;20008;-88
2021/01/30 03:23:04;;;;;;;5.72;3.78;;;24.00;76.50;;;;;;6168365;23;20009;-87
2021/01/30 03:25:45;;;;;;;9.20;4.18;;;24.00;76.10;;;;;;6191964;23;20015;-88
2021/01/30 03:29:04;;;;;;;7.93;5.03;;;23.90;76.10;;;;;;6218757;23;20000;-88
2021/01/30 03:32:08;;;;;;;11.02;6.57;;;23.90;76.50;;;;;;6196151;23;19997;-89
2021/01/30 03:34:53;;;;;;;7.63;4.93;;;23.90;76.60;;;;;;6256573;23;20015;-89
2021/01/30 03:40:22;;;;;;;8.38;3.88;;;23.90;75.40;;;;;;6240724;23;20054;-89
2021/01/30 03:42:55;;;;;;;5.57;3.97;;;23.90;76.40;;;;;;6257366;23;20284;-88
2021/01/30 03:45:26;;;;;;;6.68;4.13;;;23.90;76.40;;;;;;6257684;23;20032;-88
2021/01/30 03:47:53;;;;;;;4.82;3.30;;;23.90;75.20;;;;;;6230584;23;20043;-87
2021/01/30 03:50:21;;;;;;;4.97;3.80;;;23.80;75.00;;;;;;6194713;23;20043;-88
2021/01/30 03:52:58;;;;;;;7.00;3.10;;;23.80;75.70;;;;;;6194693;23;20055;-88
2021/01/30 03:55:45;;;;;;;5.75;3.45;;;23.80;74.80;;;;;;6194986;23;20007;-89
2021/01/30 03:58:14;;;;;;;8.38;3.60;;;23.80;74.40;;;;;;6172141;23;20125;-88
2021/01/30 04:00:43;;;;;;;4.28;3.00;;;23.80;75.50;;;;;;6195049;23;20001;-87
2021/01/30 04:03:10;;;;;;;5.97;3.40;;;23.80;74.20;;;;;;6194417;23;20293;-88
2021/01/30 04:05:43;;;;;;;7.63;3.30;;;23.80;74.30;;;;;;6169811;23;20008;-88
2021/01/30 04:08:12;;;;;;;7.03;3.28;;;23.80;74.00;;;;;;6194964;23;20008;-89
2021/01/30 04:10:51;;;;;;;6.32;3.40;;;23.70;74.40;;;;;;6195151;23;20044;-89
2021/01/30 04:13:38;;;;;;;3.92;3.08;;;23.80;73.70;;;;;;6145198;23;20293;-88
2021/01/30 04:16:05;;;;;;;5.32;3.30;;;23.70;74.10;;;;;;6174650;23;20005;-89
2021/01/30 04:18:31;;;;;;;7.15;3.40;;;23.80;74.70;;;;;;6169469;23;19997;-89
2021/01/30 04:20:59;;;;;;;7.47;3.65;;;23.70;73.90;;;;;;6194658;23;20009;-89
2021/01/30 04:23:33;;;;;;;5.70;4.03;;;23.70;74.80;;;;;;6194500;23;20017;-88
2021/01/30 04:26:05;;;;;;;6.38;3.63;;;23.60;74.70;;;;;;6194507;23;20060;-89
2021/01/30 04:28:32;;;;;;;4.10;3.17;;;23.60;74.90;;;;;;6220666;23;20285;-88
2021/01/30 04:30:58;;;;;;;5.13;3.20;;;23.60;74.80;;;;;;6257618;23;20027;-89
2021/01/30 04:33:25;;;;;;;4.82;3.40;;;23.60;74.80;;;;;;6256863;23;19992;-88
2021/01/30 04:35:51;;;;;;;4.93;3.10;;;23.50;74.60;;;;;;6257171;23;20040;-88
2021/01/30 04:38:18;;;;;;;5.60;3.13;;;23.50;74.20;;;;;;6257562;23;20022;-89
2021/01/30 04:40:47;;;;;;;4.97;3.05;;;23.50;74.30;;;;;;6230154;23;20055;-89
2021/01/30 04:43:26;;;;;;;4.47;2.80;;;23.50;74.50;;;;;;6230099;23;20011;-90
2021/01/30 04:45:59;;;;;;;5.03;3.22;;;23.40;73.40;;;;;;6230242;23;19996;-89
2021/01/30 04:48:53;;;;;;;5.57;3.58;;;23.40;73.90;;;;;;6256856;23;20072;-88
2021/01/30 04:51:32;;;;;;;4.63;3.08;;;23.40;74.30;;;;;;6257263;23;20040;-90
2021/01/30 04:54:07;;;;;;;6.32;2.88;;;23.40;73.90;;;;;;6257093;23;19996;-88
2021/01/30 04:56:52;;;;;;;6.55;2.78;;;23.40;73.90;;;;;;6230914;23;20000;-89
2021/01/30 04:59:31;;;;;;;4.35;3.55;;;23.40;74.30;;;;;;6230504;23;20004;-88
2021/01/30 05:02:18;;;;;;;8.27;3.30;;;23.30;74.00;;;;;;6256312;23;20044;-88
2021/01/30 05:04:50;;;;;;;3.63;2.88;;;23.30;74.30;;;;;;6230024;23;20271;-88
2021/01/30 05:07:35;;;;;;;4.35;2.92;;;23.20;74.60;;;;;;6229705;23;20016;-88
2021/01/30 05:10:19;;;;;;;5.15;3.10;;;23.20;74.90;;;;;;6230129;23;20060;-87
2021/01/30 05:13:15;;;;;;;4.20;2.92;;;23.20;75.50;;;;;;6229776;23;20000;-89
2021/01/30 05:16:03;;;;;;;3.78;2.80;;;23.20;75.20;;;;;;6225766;23;20007;-90
2021/01/30 05:18:41;;;;;;;6.13;3.58;;;23.20;75.00;;;;;;6230240;23;20004;-89
2021/01/30 05:21:39;;;;;;;6.03;2.85;;;23.30;74.90;;;;;;6229792;23;20295;-88
2021/01/30 05:24:08;;;;;;;5.57;3.22;;;23.30;74.20;;;;;;6228485;23;20195;-88
2021/01/30 05:27:30;;;;;;;3.95;2.78;;;23.30;74.60;;;;;;6255215;22;20003;-89
2021/01/30 05:30:25;;;;;;;4.50;2.80;;;23.30;74.30;;;;;;6138523;23;20008;-89
2021/01/30 05:33:16;;;;;;;5.88;2.88;;;23.20;73.90;;;;;;6256695;23;20003;-91
2021/01/30 05:35:51;;;;;;;6.95;3.15;;;23.20;73.40;;;;;;6229249;23;20249;-89
2021/01/30 05:38:59;;;;;;;3.80;2.70;;;23.20;72.50;;;;;;6229526;23;20007;-89
2021/01/30 05:41:54;;;;;;;3.67;2.53;;;23.20;72.60;;;;;;6194603;23;20253;-89
2021/01/30 05:44:39;;;;;;;4.53;2.70;;;23.20;72.30;;;;;;6225194;23;20027;-87
2021/01/30 05:47:26;;;;;;;4.68;2.88;;;23.10;71.40;;;;;;6225168;23;19993;-87
2021/01/30 05:49:56;;;;;;;4.45;2.95;;;23.10;72.50;;;;;;6226692;23;19996;-89
2021/01/30 05:52:29;;;;;;;3.50;2.63;;;23.10;71.80;;;;;;6224765;23;20281;-89
2021/01/30 05:54:57;;;;;;;4.00;2.67;;;23.10;71.30;;;;;;6226463;23;20059;-88
2021/01/30 05:57:24;;;;;;;4.88;2.40;;;23.10;70.10;;;;;;6226645;23;19993;-90
2021/01/30 05:59:59;;;;;;;3.50;2.67;;;23.20;71.00;;;;;;6224842;23;20027;-89
2021/01/30 06:02:31;;;;;;;3.72;2.35;;;23.10;70.20;;;;;;6225282;23;20010;-89
2021/01/30 06:05:16;;;;;;;2.90;2.42;;;23.10;70.10;;;;;;6226599;23;20280;-89
2021/01/30 06:07:43;;;;;;;5.22;2.50;;;23.10;69.60;;;;;;6225468;23;20020;-88
2021/01/30 06:10:36;;;;;;;3.78;2.38;;;23.00;70.50;;;;;;6226683;23;19997;-89
2021/01/30 06:13:11;;;;;;;;;;;23.00;71.10;;;;;;6192896;23;20248;-89
2021/01/30 06:15:41;;;;;;;4.25;2.20;;;23.00;71.30;;;;;;6225358;23;20172;-89
2021/01/30 06:18:30;;;;;;;4.78;2.70;;;23.00;69.90;;;;;;6224483;23;19997;-88
2021/01/30 06:21:06;;;;;;;4.80;2.85;;;23.10;70.40;;;;;;6226626;23;20000;-88
2021/01/30 06:23:33;;;;;;;4.00;2.33;;;23.10;69.80;;;;;;6224581;23;20039;-88
2021/01/30 06:26:20;;;;;;;4.25;2.70;;;23.10;69.20;;;;;;6225261;23;20312;-88
2021/01/30 06:29:00;;;;;;;5.82;2.50;;;23.00;70.20;;;;;;6226835;23;19985;-89
2021/01/30 06:31:39;;;;;;;5.57;2.35;;;23.00;69.50;;;;;;6225296;23;20000;-90
2021/01/30 06:34:27;;;;;;;5.28;2.47;;;23.10;68.40;;;;;;6224847;23;20027;-88
2021/01/30 06:36:55;;;;;;;3.30;2.60;;;23.00;69.10;;;;;;6225792;23;19984;-89
2021/01/30 06:39:34;;;;;;;3.08;2.33;;;23.00;68.60;;;;;;6226236;23;19997;-88
2021/01/30 06:42:11;;;;;;;3.95;2.25;;;23.00;69.30;;;;;;6244108;23;20037;-88
2021/01/30 06:44:39;;;;;;;3.85;2.55;;;23.00;68.50;;;;;;6229529;23;20007;-89
2021/01/30 06:47:14;;;;;;;3.33;2.20;;;23.00;68.40;;;;;;6229338;23;19992;-89
2021/01/30 06:49:48;;;;;;;2.45;2.15;;;23.10;68.90;;;;;;6229526;23;20227;-88
2021/01/30 06:52:23;;;;;;;2.95;2.38;;;23.00;68.30;;;;;;6229543;23;20323;-89
2021/01/30 06:55:12;;;;;;;6.72;2.20;;;23.00;66.80;;;;;;6256857;23;20000;-89
2021/01/30 06:58:04;;;;;;;3.35;2.20;;;23.10;66.60;;;;;;6229623;23;20003;-88
2021/01/30 07:00:34;;;;;;;4.70;2.10;;;23.10;66.30;;;;;;6230138;23;20004;-88
2021/01/30 07:03:14;;;;;;;3.10;1.92;;;23.10;66.40;;;;;;6229915;23;19996;-88
2021/01/30 07:05:48;;;;;;;4.05;2.33;;;23.00;67.20;;;;;;6229944;23;20004;-89
2021/01/30 07:08:32;;;;;;;3.15;2.10;;;23.00;68.10;;;;;;6230553;23;19999;-88
2021/01/30 07:11:05;;;;;;;2.58;2.13;;;23.00;68.60;;;;;;6232026;23;20006;-89
2021/01/30 07:13:38;;;;;;;3.33;2.20;;;22.90;69.40;;;;;;6258456;23;20006;-89
2021/01/30 07:16:12;;;;;;;5.15;2.85;;;22.80;69.40;;;;;;6258660;23;19996;-89
2021/01/30 07:19:05;;;;;;;4.60;2.60;;;22.80;69.50;;;;;;6231265;23;19996;-88
2021/01/30 07:21:42;;;;;;;4.03;2.50;;;22.80;71.00;;;;;;6211731;23;20008;-89
2021/01/30 07:24:47;;;;;;;3.92;2.78;;;22.70;70.40;;;;;;6231459;22;19992;-89
2021/01/30 07:27:25;;;;;;;3.55;2.55;;;22.70;69.80;;;;;;6219688;23;20023;-88
2021/01/30 07:30:17;;;;;;;4.20;2.58;;;22.70;70.00;;;;;;6231997;23;20003;-89
2021/01/30 07:32:55;;;;;;;5.22;2.78;;;22.70;70.80;;;;;;6247070;23;19993;-89
2021/01/30 07:35:27;;;;;;;5.28;2.45;;;22.70;71.10;;;;;;6231464;23;20192;-89
2021/01/30 07:38:03;;;;;;;5.25;2.67;;;22.70;71.40;;;;;;6231669;23;20003;-88
2021/01/30 07:40:50;;;;;;;4.00;2.83;;;22.70;70.50;;;;;;6258621;23;20046;-89
2021/01/30 07:43:24;;;;;;;6.55;2.60;;;22.70;70.70;;;;;;6258206;23;20004;-88
2021/01/30 07:46:08;;;;;;;4.63;2.42;;;22.60;71.60;;;;;;6231904;23;20006;-88
2021/01/30 07:48:58;;;;;;;4.10;2.63;;;22.60;71.10;;;;;;6258260;23;19992;-88
2021/01/30 07:51:52;;;;;;;6.30;3.08;;;22.60;70.50;;;;;;6231175;23;20000;-89
2021/01/30 07:54:19;;;;;;;5.80;2.75;;;22.60;70.60;;;;;;6231610;22;20354;-89
2021/01/30 07:56:58;;;;;;;7.28;2.75;;;22.60;71.50;;;;;;6231116;23;20251;-89
2021/01/30 07:59:53;;;;;;;5.28;3.08;;;22.50;71.60;;;;;;6257886;23;19993;-89
2021/01/30 08:02:57;;;;;;;5.38;3.00;;;22.50;71.30;;;;;;6230902;23;20000;-89
2021/01/30 08:06:17;;;;;;;6.00;3.40;;;22.40;71.50;;;;;;6258331;23;19992;-89
2021/01/30 08:08:58;;;;;;;5.97;3.13;;;22.40;71.80;;;;;;6141128;23;20005;-89
2021/01/30 08:11:38;;;;;;;4.85;2.72;;;22.40;71.90;;;;;;6256653;23;19997;-89
2021/01/30 08:14:20;;;;;;;7.95;3.05;;;22.40;71.40;;;;;;6257796;23;19991;-89
2021/01/30 08:17:06;;;;;;;6.18;3.05;;;22.40;72.30;;;;;;6231949;23;20338;-88
2021/01/30 08:19:56;;;;;;;7.25;3.40;;;22.40;72.30;;;;;;6258316;22;19996;-89
2021/01/30 08:22:46;;;;;;;5.72;3.67;;;22.40;72.10;;;;;;6230668;23;19996;-88
2021/01/30 08:26:07;;;;;;;5.10;3.05;;;22.40;72.20;;;;;;6211288;22;20008;-88
2021/01/30 08:29:02;;;;;;;6.22;3.65;;;22.40;72.70;;;;;;6200667;23;20157;-88
2021/01/30 08:31:39;;;;;;;6.45;3.05;;;22.40;73.00;;;;;;6221340;23;20000;-88
2021/01/30 08:34:33;;;;;;;4.35;2.70;;;22.40;73.60;;;;;;6231013;23;20055;-89
2021/01/30 08:37:21;;;;;;;5.40;3.00;;;22.40;73.20;;;;;;6257633;23;20307;-88
2021/01/30 08:40:03;;;;;;;5.18;3.10;;;22.40;74.20;;;;;;6231317;23;20000;-88
2021/01/30 08:42:37;;;;;;;5.53;3.20;;;22.40;74.90;;;;;;6257323;23;20157;-88
2021/01/30 08:45:09;;;;;;;4.95;3.17;;;22.30;75.30;;;;;;6257428;23;20022;-87
2021/01/30 08:47:55;;;;;;;5.47;3.30;;;22.30;75.20;;;;;;6230625;23;19992;-88
2021/01/30 08:50:40;;;;;;;4.40;3.05;;;22.30;75.10;;;;;;6231209;23;20027;-88
2021/01/30 08:53:28;;;;;;;5.70;3.15;;;22.40;75.90;;;;;;6230915;23;20249;-88
2021/01/30 08:55:56;;;;;;;5.30;3.13;;;22.30;76.10;;;;;;6230629;23;20027;-88
2021/01/30 08:58:35;;;;;;;8.18;3.00;;;22.30;76.40;;;;;;6230758;23;19996;-88
2021/01/30 09:01:08;;;;;;;7.22;3.50;;;22.30;76.60;;;;;;6230503;23;20027;-87
2021/01/30 09:03:44;;;;;;;6.20;3.10;;;22.30;76.40;;;;;;6257717;23;19992;-88
2021/01/30 09:06:39;;;;;;;5.90;3.00;;;22.30;76.40;;;;;;6230622;23;20295;-88
2021/01/30 09:09:16;;;;;;;7.95;4.13;;;22.30;76.60;;;;;;6230588;22;19992;-88
2021/01/30 09:11:53;;;;;;;4.93;3.20;;;22.30;76.30;;;;;;6257014;23;19992;-87
2021/01/30 09:14:19;;;;;;;5.93;3.50;;;22.30;76.50;;;;;;6257357;23;20164;-88
2021/01/30 09:16:59;;;;;;;4.78;3.00;;;22.30;76.10;;;;;;6230217;23;19996;-88
2021/01/30 09:20:01;;;;;;;5.60;3.25;;;22.30;76.00;;;;;;6230082;23;20008;-87
2021/01/30 09:22:53;;;;;;;7.97;3.47;;;22.30;76.70;;;;;;6229933;23;19999;-88
2021/01/30 09:25:51;;;;;;;5.85;3.50;;;22.30;75.80;;;;;;6257374;22;19999;-89
2021/01/30 09:28:26;;;;;;;5.07;3.20;;;22.30;75.80;;;;;;6230509;23;20020;-88
2021/01/30 09:30:56;;;;;;;6.70;2.95;;;22.30;76.30;;;;;;6229934;23;19996;-89
2021/01/30 09:33:34;;;;;;;3.75;3.03;;;22.30;76.10;;;;;;6230602;23;20055;-89
2021/01/30 09:36:22;;;;;;;5.13;2.97;;;22.30;75.40;;;;;;6230281;23;20011;-88
2021/01/30 09:38:51;;;;;;;4.80;3.20;;;22.30;75.70;;;;;;6256869;23;19996;-89
2021/01/30 09:41:31;;;;;;;6.88;3.22;;;22.30;75.80;;;;;;6229734;23;20233;-88
2021/01/30 09:44:25;;;;;;;4.78;2.97;;;22.30;76.00;;;;;;6256961;23;20310;-89
2021/01/30 09:46:58;;;;;;;4.97;3.10;;;22.30;75.40;;;;;;6229764;23;20015;-88
2021/01/30 09:49:29;;;;;;;4.88;3.13;;;22.30;75.40;;;;;;6256619;23;19996;-88
2021/01/30 09:52:10;;;;;;;4.43;3.03;;;22.30;75.20;;;;;;6229706;23;20063;-89
2021/01/30 09:54:38;;;;;;;7.72;3.28;;;22.30;74.50;;;;;;6257194;23;20193;-90
2021/01/30 09:57:12;;;;;;;5.40;2.95;;;22.40;74.60;;;;;;6230154;23;20003;-89
2021/01/30 09:59:39;;;;;;;6.80;3.42;;;22.40;73.60;;;;;;6229433;23;20284;-89
2021/01/30 10:02:28;;;;;;;5.90;3.28;;;22.50;72.70;;;;;;6230079;23;20007;-88
2021/01/30 10:05:13;;;;;;;8.45;3.00;;;22.50;72.30;;;;;;6230168;23;20023;-89
2021/01/30 10:07:40;;;;;;;9.55;4.22;;;22.50;71.80;;;;;;6229946;23;20004;-89
2021/01/30 10:10:29;;;;;;;6.07;3.38;;;22.50;71.40;;;;;;6230543;23;20000;-88
2021/01/30 10:13:00;;;;;;;6.47;3.85;;;22.50;71.10;;;;;;6229868;23;20004;-88
2021/01/30 10:15:34;;;;;;;7.60;3.63;;;22.60;71.10;;;;;;6229752;23;20000;-88
2021/01/30 10:18:10;;;;;;;9.25;3.33;;;22.50;71.40;;;;;;6229463;23;20000;-89
2021/01/30 10:20:44;;;;;;;7.80;2.97;;;22.60;71.30;;;;;;6229628;23;20043;-89
2021/01/30 10:23:12;;;;;;;9.00;3.72;;;22.50;71.10;;;;;;6229723;23;20284;-88
2021/01/30 10:25:39;;;;;;;8.15;3.63;;;22.50;71.40;;;;;;6257303;22;20003;-88
2021/01/30 10:28:09;;;;;;;5.20;3.30;;;22.50;71.40;;;;;;6230270;23;20160;-89
2021/01/30 10:30:35;;;;;;;8.75;3.33;;;22.50;71.50;;;;;;6229666;23;20000;-89
2021/01/30 10:33:08;;;;;;;5.85;3.28;;;22.50;71.40;;;;;;6229406;23;20224;-88
2021/01/30 10:35:47;;;;;;;;;;;22.50;71.50;;;;;;6230356;23;19996;-90
2021/01/30 10:38:26;;;;;;;6.38;3.13;;;22.50;71.40;;;;;;6229991;23;19899;-89
2021/01/30 10:41:02;;;;;;;7.18;3.25;;;22.50;71.50;;;;;;6229864;23;19996;-89
2021/01/30 10:43:32;;;;;;;8.73;3.67;;;22.40;71.90;;;;;;6231996;23;20004;-90
2021/01/30 10:46:02;;;;;;;7.63;3.72;;;22.40;72.00;;;;;;6232664;23;20008;-90
2021/01/30 10:48:38;;;;;;;8.13;4.00;;;22.40;72.00;;;;;;6258478;23;20035;-89
2021/01/30 10:51:15;;;;;;;11.65;3.90;;;22.40;72.00;;;;;;6233102;23;20059;-90
2021/01/30 10:53:43;;;;;;;8.05;3.58;;;22.30;72.00;;;;;;6233737;23;19980;-89
2021/01/30 10:56:26;;;;;;;5.90;3.58;;;22.30;72.00;;;;;;6231480;23;20011;-90
2021/01/30 10:58:55;;;;;;;11.57;4.30;;;22.30;71.60;;;;;;6258071;23;20038;-88
2021/01/30 11:01:22;;;;;;;6.47;3.53;;;22.40;71.40;;;;;;6231244;23;20000;-88
2021/01/30 11:04:03;;;;;;;12.43;4.43;;;22.40;71.20;;;;;;6258203;23;19989;-88
2021/01/30 11:06:42;;;;;;;9.02;3.75;;;22.40;71.10;;;;;;6231248;23;20004;-89
2021/01/30 11:09:27;;;;;;;6.80;3.28;;;22.40;71.20;;;;;;6231726;23;20063;-88
2021/01/30 11:12:17;;;;;;;11.43;4.35;;;22.40;70.80;;;;;;6231426;23;20019;-89
2021/01/30 11:14:44;;;;;;;8.65;3.65;;;22.40;70.60;;;;;;6231245;23;20000;-88
2021/01/30 11:17:40;;;;;;;9.75;3.55;;;22.50;70.40;;;;;;6231129;23;19996;-87
2021/01/30 11:20:10;;;;;;;13.38;4.15;;;22.50;69.80;;;;;;6218276;23;20280;-88
2021/01/30 11:22:37;;;;;;;8.63;4.15;;;22.50;69.40;;;;;;6230915;23;20054;-87
2021/01/30 11:25:13;;;;;;;7.45;3.45;;;22.60;69.00;;;;;;6231010;22;20012;-89
2021/01/30 11:27:47;;;;;;;7.18;3.80;;;22.60;69.50;;;;;;6231500;23;20179;-85
2021/01/30 11:30:25;;;;;;;9.13;3.80;;;22.60;69.90;;;;;;6231776;23;20031;-85
2021/01/30 11:33:23;;;;;;;12.25;4.75;;;22.60;70.50;;;;;;6258231;23;19988;-89
2021/01/30 11:35:54;;;;;;;14.23;4.45;;;22.60;71.10;;;;;;6213659;23;20004;-88
2021/01/30 11:38:24;;;;;;;13.82;3.60;;;22.50;71.20;;;;;;6230876;23;19996;-88
2021/01/30 11:40:54;;;;;;;10.32;3.65;;;22.60;71.70;;;;;;6231012;23;20035;-88
2021/01/30 11:43:21;;;;;;;8.15;4.00;;;22.50;71.40;;;;;;6258576;23;19996;-88
2021/01/30 11:45:48;;;;;;;8.50;3.75;;;22.50;71.40;;;;;;6231578;23;20011;-91
2021/01/30 11:48:17;;;;;;;13.45;4.05;;;22.60;70.80;;;;;;6231636;23;19992;-88
2021/01/30 11:50:43;;;;;;;7.00;3.40;;;22.70;70.30;;;;;;6231993;23;20041;-89
2021/01/30 11:53:18;;;;;;;8.25;4.03;;;22.80;70.00;;;;;;6231343;23;20217;-90
2021/01/30 11:55:45;;;;;;;11.00;5.38;;;23.00;69.40;;;;;;6231449;23;20011;-88
2021/01/30 11:58:13;;;;;;;12.93;4.78;;;23.00;68.90;;;;;;6231911;23;20060;-87
2021/01/30 12:00:39;;;;;;;11.63;4.32;;;23.20;69.60;;;;;;6230451;23;20193;-90
2021/01/30 12:03:09;;;;;;;8.57;3.85;;;23.30;70.00;;;;;;6257643;23;19992;-89
2021/01/30 12:05:37;;;;;;;10.38;4.35;;;23.40;70.00;;;;;;6232350;23;20058;-93
2021/01/30 12:08:06;;;;;;;8.40;4.00;;;23.40;69.90;;;;;;6231165;23;20046;-90
2021/01/30 12:10:33;;;;;;;11.52;4.53;;;23.40;70.50;;;;;;6258308;23;19992;-89
2021/01/30 12:13:00;;;;;;;10.23;4.63;;;23.40;70.40;;;;;;6231068;23;19993;-88
2021/01/30 12:15:29;;;;;;;12.25;5.60;;;23.40;70.50;;;;;;6231428;23;20091;-88
2021/01/30 12:17:58;;;;;;;10.55;4.03;;;23.40;70.50;;;;;;6231152;23;20080;-89
2021/01/30 12:20:29;;;;;;;5.97;3.75;;;23.40;70.30;;;;;;6230293;23;20062;-88
2021/01/30 12:22:57;;;;;;;8.65;4.28;;;23.40;71.00;;;;;;6230078;23;20193;-89
2021/01/30 12:25:24;;;;;;;8.32;4.10;;;23.50;71.20;;;;;;6230640;22;20000;-88
2021/01/30 12:27:55;;;;;;;13.73;4.90;;;23.70;71.40;;;;;;6231014;23;19996;-90
2021/01/30 12:30:32;;;;;;;8.73;3.80;;;23.90;71.20;;;;;;6259059;23;20011;-91
2021/01/30 12:32:59;;;;;;;6.85;3.47;;;24.10;70.40;;;;;;6231894;23;20327;-88
2021/01/30 12:35:29;;;;;;;10.02;4.30;;;24.30;69.80;;;;;;6231121;23;20010;-89
2021/01/30 12:38:07;;;;;;;6.97;3.43;;;24.40;69.80;;;;;;6256315;23;20071;-90
2021/01/30 12:40:36;;;;;;;5.65;3.38;;;24.50;69.90;;;;;;6230347;23;20004;-91
2021/01/30 12:43:04;;;;;;;7.25;3.50;;;24.50;69.80;;;;;;6257699;23;20028;-91
2021/01/30 12:45:32;;;;;;;7.18;3.28;;;24.70;69.60;;;;;;6233465;23;20011;-91
2021/01/30 12:48:19;;;;;;;5.70;3.30;;;24.90;68.70;;;;;;6232528;23;20003;-90
2021/01/30 12:50:46;;;;;;;4.65;3.25;;;25.10;67.00;;;;;;6230871;23;19992;-90
2021/01/30 12:53:13;;;;;;;6.93;3.05;;;25.10;65.70;;;;;;6230818;23;20042;-90
2021/01/30 12:55:40;;;;;;;11.73;3.80;;;25.30;65.90;;;;;;6231001;23;20011;-93
2021/01/30 12:58:17;;;;;;;7.40;3.70;;;25.60;65.30;;;;;;6230461;23;20062;-87
2021/01/30 13:01:18;;;;;;;7.20;3.42;;;25.80;65.40;;;;;;6230849;23;20006;-89
2021/01/30 13:03:44;;;;;;;9.95;4.10;;;26.00;65.70;;;;;;6188953;23;20134;-93
2021/01/30 13:06:11;;;;;;;5.65;3.13;;;26.20;64.70;;;;;;6230036;23;20000;-92
2021/01/30 13:08:38;;;;;;;7.35;2.97;;;26.30;63.50;;;;;;6257405;23;20015;-88
2021/01/30 13:11:04;;;;;;;5.93;3.20;;;26.50;64.10;;;;;;6258265;23;20338;-88
2021/01/30 13:13:51;;;;;;;6.88;3.13;;;26.50;63.00;;;;;;6230076;23;20055;-89
2021/01/30 13:16:17;;;;;;;4.47;3.05;;;26.70;63.40;;;;;;6257714;23;20023;-89
2021/01/30 13:18:44;;;;;;;8.93;3.00;;;26.80;62.00;;;;;;6256701;23;20054;-88
2021/01/30 13:21:11;;;;;;;14.63;3.83;;;27.20;61.90;;;;;;6230220;23;20223;-88
2021/01/30 13:23:38;;;;;;;6.22;3.05;;;27.40;62.00;;;;;;6229225;23;20070;-87
2021/01/30 13:26:07;;;;;;;5.90;3.35;;;27.70;60.50;;;;;;6230414;23;20000;-91
2021/01/30 13:28:35;;;;;;;6.60;3.88;;;27.90;60.10;;;;;;6230058;23;20143;-89
2021/01/30 13:31:02;;;;;;;4.75;2.47;;;28.00;59.30;;;;;;6258102;23;19992;-90
2021/01/30 13:33:29;;;;;;;5.07;2.67;;;28.10;56.90;;;;;;6257164;23;19992;-90
2021/01/30 13:35:59;;;;;;;5.80;2.85;;;28.30;56.50;;;;;;6230437;23;20000;-87
2021/01/30 13:38:30;;;;;;;7.45;2.78;;;28.50;57.70;;;;;;6229638;23;20011;-88
2021/01/30 13:41:24;;;;;;;11.77;3.83;;;28.90;57.40;;;;;;6258113;23;20086;-91
2021/01/30 13:46:44;;;;;;;9.57;3.03;;;29.50;56.20;;;;;;6207607;23;20015;-90
2021/01/30 13:49:12;;;;;;;6.85;3.28;;;29.20;57.50;;;;;;6229210;23;20188;-89
2021/01/30 13:55:01;;;;;;;7.72;2.92;;;29.60;56.70;;;;;;6257126;23;20014;-90
2021/01/30 14:00:02;;;;;;;3.92;2.13;;;30.30;53.60;;;;;;6258808;23;20124;-89
2021/01/30 14:02:45;;;;;;;5.32;3.08;;;30.20;53.60;;;;;;6256743;23;19992;-89
2021/01/30 14:05:25;;;;;;;10.30;5.32;;;30.70;54.50;;;;;;6179151;23;20003;-87
2021/01/30 14:07:59;;;;;;;21.52;12.27;;;30.80;54.00;;;;;;6229810;23;19988;-86
2021/01/30 14:13:48;;;;;;;9.05;4.10;;;31.70;53.60;;;;;;6256183;23;20055;-91
2021/01/30 14:16:34;;;;;;;6.75;4.00;;;31.50;50.80;;;;;;6256166;23;20003;-89
2021/01/30 14:19:00;;;;;;;6.57;3.10;;;31.60;51.60;;;;;;6229275;23;20004;-89
2021/01/30 14:21:36;;;;;;;5.65;2.67;;;31.40;50.60;;;;;;6229948;23;19992;-89
2021/01/30 14:24:03;;;;;;;3.47;2.10;;;31.40;48.80;;;;;;6230008;23;20188;-89
2021/01/30 14:26:56;;;;;;;4.15;2.38;;;31.10;49.90;;;;;;6229827;23;20069;-89
2021/01/30 14:29:24;;;;;;;5.00;2.42;;;30.90;50.40;;;;;;6228870;23;20055;-88
2021/01/30 14:31:58;;;;;;;9.25;3.47;;;31.00;51.10;;;;;;6256003;23;20050;-90
2021/01/30 14:34:27;;;;;;;6.20;2.50;;;31.50;50.40;;;;;;6256750;23;19985;-88
2021/01/30 14:36:54;;;;;;;7.68;2.60;;;31.40;50.90;;;;;;6229616;23;20000;-89
2021/01/30 14:39:27;;;;;;;7.78;2.30;;;31.30;51.10;;;;;;6231460;23;20062;-90
2021/01/30 14:41:57;;;;;;;4.45;2.63;;;31.50;52.50;;;;;;6229151;23;20000;-89
2021/01/30 14:44:29;;;;;;;6.50;3.58;;;31.50;52.30;;;;;;6230184;23;20000;-88
2021/01/30 14:47:09;;;;;;;6.38;3.08;;;31.70;52.10;;;;;;6225426;23;20035;-92
2021/01/30 14:49:43;;;;;;;4.07;2.78;;;32.00;52.30;;;;;;6207078;23;20020;-88
2021/01/30 14:52:22;;;;;;;5.13;2.67;;;31.70;51.50;;;;;;6256907;23;20007;-90
2021/01/30 14:54:49;;;;;;;5.13;2.47;;;32.00;52.10;;;;;;6193218;23;20056;-91
2021/01/30 14:57:18;;;;;;;5.05;2.63;;;32.30;50.80;;;;;;6168807;23;20093;-91
2021/01/30 15:00:08;;;;;;;5.03;3.05;;;32.30;48.70;;;;;;6167952;23;20314;-90
2021/01/30 15:02:36;;;;;;;3.85;2.70;;;32.70;48.80;;;;;;6080643;23;20010;-90
2021/01/30 15:05:08;;;;;;;5.22;2.80;;;33.10;48.00;;;;;;6083125;23;20002;-89
2021/01/30 15:07:39;;;;;;;8.88;3.10;;;33.40;48.20;;;;;;6085932;23;20294;-89
2021/01/30 15:10:09;;;;;;;6.22;2.90;;;33.60;46.80;;;;;;6080828;23;20428;-89
2021/01/30 15:12:35;;;;;;;10.18;3.15;;;33.60;46.90;;;;;;6086362;23;20003;-89
2021/01/30 15:15:08;;;;;;;16.27;4.93;;;33.60;47.60;;;;;;6081445;23;20014;-86
2021/01/30 15:17:43;;;;;;;6.93;2.63;;;33.10;47.60;;;;;;6081222;23;20011;-89
2021/01/30 15:20:13;;;;;;;8.07;3.10;;;33.30;47.80;;;;;;6105124;23;20017;-91
2021/01/30 15:22:39;;;;;;;12.55;3.75;;;33.40;48.10;;;;;;6080879;23;20006;-89
2021/01/30 15:25:14;;;;;;;20.45;5.32;;;33.00;49.70;;;;;;6118021;23;19997;-88
2021/01/30 15:27:44;;;;;;;18.58;5.18;;;33.50;50.40;;;;;;6164248;23;20005;-89
2021/01/30 15:30:13;;;;;;;16.27;4.80;;;34.00;47.60;;;;;;6140476;23;19994;-90
2021/01/30 15:32:39;;;;;;;27.55;7.10;;;33.90;46.90;;;;;;6181940;23;20008;-89